sensor_id;sensor_type;location;lat;lon;timestamp;pressure;altitude;pressure_sealevel;temperature;humidity
70141;BME280;57508;43.086;0.136;2022-07-29T00:00:06;95899.31;;;28.45;43.96
70141;BME280;57508;43.086;0.136;2022-07-29T00:02:32;95899.25;;;28.56;43.61
70141;BME280;57508;43.086;0.136;2022-07-29T00:04:58;95884.41;;;28.64;43.20
70141;BME280;57508;43.086;0.136;2022-07-29T00:07:23;95880.56;;;28.62;44.09
70141;BME280;57508;43.086;0.136;2022-07-29T00:09:49;95877.44;;;28.63;43.98
70141;BME280;57508;43.086;0.136;2022-07-29T00:12:14;95880.69;;;28.47;43.89
70141;BME280;57508;43.086;0.136;2022-07-29T00:14:39;95888.94;;;28.33;44.18
70141;BME280;57508;43.086;0.136;2022-07-29T00:17:04;95902.47;;;28.40;43.92
70141;BME280;57508;43.086;0.136;2022-07-29T00:19:30;95908.72;;;28.37;44.06
70141;BME280;57508;43.086;0.136;2022-07-29T00:21:55;95895.41;;;28.46;43.90
70141;BME280;57508;43.086;0.136;2022-07-29T00:24:20;95893.81;;;28.52;43.92
70141;BME280;57508;43.086;0.136;2022-07-29T00:26:46;95880.78;;;28.33;44.20
70141;BME280;57508;43.086;0.136;2022-07-29T00:29:11;95880.69;;;28.44;44.20
70141;BME280;57508;43.086;0.136;2022-07-29T00:31:36;95860.59;;;28.34;44.18
70141;BME280;57508;43.086;0.136;2022-07-29T00:34:01;95859.00;;;28.40;44.01
70141;BME280;57508;43.086;0.136;2022-07-29T00:36:27;95850.06;;;28.39;43.55
70141;BME280;57508;43.086;0.136;2022-07-29T00:38:53;95854.03;;;28.31;44.29
70141;BME280;57508;43.086;0.136;2022-07-29T00:41:18;95852.19;;;28.13;44.17
70141;BME280;57508;43.086;0.136;2022-07-29T00:43:43;95860.03;;;28.00;44.71
70141;BME280;57508;43.086;0.136;2022-07-29T00:46:09;95856.84;;;28.13;44.20
70141;BME280;57508;43.086;0.136;2022-07-29T00:48:34;95863.41;;;28.19;43.88
70141;BME280;57508;43.086;0.136;2022-07-29T00:51:00;95864.50;;;28.33;44.06
70141;BME280;57508;43.086;0.136;2022-07-29T00:53:26;95885.44;;;28.36;43.87
70141;BME280;57508;43.086;0.136;2022-07-29T00:55:53;95882.28;;;28.37;44.17
70141;BME280;57508;43.086;0.136;2022-07-29T00:58:19;95864.88;;;28.27;44.42
70141;BME280;57508;43.086;0.136;2022-07-29T01:00:44;95870.75;;;28.22;44.30
70141;BME280;57508;43.086;0.136;2022-07-29T01:03:10;95877.28;;;28.36;43.74
70141;BME280;57508;43.086;0.136;2022-07-29T01:05:35;95893.25;;;28.23;44.51
70141;BME280;57508;43.086;0.136;2022-07-29T01:08:00;95891.41;;;28.05;44.24
70141;BME280;57508;43.086;0.136;2022-07-29T01:10:27;95846.78;;;27.38;46.34
70141;BME280;57508;43.086;0.136;2022-07-29T01:12:52;95825.84;;;28.07;44.72
70141;BME280;57508;43.086;0.136;2022-07-29T01:15:19;95833.88;;;28.21;44.04
70141;BME280;57508;43.086;0.136;2022-07-29T01:22:57;95863.16;;;27.99;44.51
70141;BME280;57508;43.086;0.136;2022-07-29T01:30:51;95882.66;;;28.43;43.95
70141;BME280;57508;43.086;0.136;2022-07-29T01:33:17;95897.75;;;28.48;44.28
70141;BME280;57508;43.086;0.136;2022-07-29T01:36:01;95903.22;;;28.44;43.96
70141;BME280;57508;43.086;0.136;2022-07-29T01:38:30;95901.75;;;28.36;43.99
70141;BME280;57508;43.086;0.136;2022-07-29T01:41:02;95894.75;;;28.35;44.03
70141;BME280;57508;43.086;0.136;2022-07-29T01:43:36;95885.31;;;28.50;43.55
70141;BME280;57508;43.086;0.136;2022-07-29T01:46:04;95880.28;;;28.45;43.94
70141;BME280;57508;43.086;0.136;2022-07-29T01:50:58;95892.25;;;28.55;43.26
70141;BME280;57508;43.086;0.136;2022-07-29T01:53:29;95888.31;;;28.60;42.70
70141;BME280;57508;43.086;0.136;2022-07-29T01:55:56;95901.22;;;28.52;43.08
70141;BME280;57508;43.086;0.136;2022-07-29T01:58:23;95908.59;;;28.51;42.44
70141;BME280;57508;43.086;0.136;2022-07-29T02:00:49;95892.41;;;28.37;42.33
70141;BME280;57508;43.086;0.136;2022-07-29T02:03:15;95874.59;;;28.28;42.44
70141;BME280;57508;43.086;0.136;2022-07-29T02:05:42;95846.91;;;27.88;42.46
70141;BME280;57508;43.086;0.136;2022-07-29T02:08:09;95829.56;;;26.19;48.39
70141;BME280;57508;43.086;0.136;2022-07-29T02:10:35;95832.47;;;27.31;45.68
70141;BME280;57508;43.086;0.136;2022-07-29T02:13:02;95847.53;;;27.43;45.03
70141;BME280;57508;43.086;0.136;2022-07-29T02:15:28;95844.88;;;27.28;45.57
70141;BME280;57508;43.086;0.136;2022-07-29T02:18:03;95825.97;;;27.02;46.29
70141;BME280;57508;43.086;0.136;2022-07-29T02:20:32;95821.91;;;27.51;45.10
70141;BME280;57508;43.086;0.136;2022-07-29T02:22:59;95842.00;;;27.68;44.37
70141;BME280;57508;43.086;0.136;2022-07-29T02:25:25;95855.63;;;27.46;45.75
70141;BME280;57508;43.086;0.136;2022-07-29T02:27:51;95858.66;;;27.74;45.34
70141;BME280;57508;43.086;0.136;2022-07-29T02:30:18;95855.84;;;27.85;45.17
70141;BME280;57508;43.086;0.136;2022-07-29T02:32:45;95860.59;;;27.62;45.71
70141;BME280;57508;43.086;0.136;2022-07-29T02:35:12;95865.84;;;27.17;46.78
70141;BME280;57508;43.086;0.136;2022-07-29T02:37:38;95881.16;;;27.67;45.69
70141;BME280;57508;43.086;0.136;2022-07-29T02:40:04;95894.38;;;27.65;45.50
70141;BME280;57508;43.086;0.136;2022-07-29T02:42:33;95916.06;;;27.69;45.09
70141;BME280;57508;43.086;0.136;2022-07-29T02:44:59;95905.25;;;27.58;45.31
70141;BME280;57508;43.086;0.136;2022-07-29T02:54:57;95928.41;;;27.84;44.64
70141;BME280;57508;43.086;0.136;2022-07-29T03:00:25;95926.13;;;27.75;44.49
70141;BME280;57508;43.086;0.136;2022-07-29T03:02:52;95920.63;;;27.90;43.97
70141;BME280;57508;43.086;0.136;2022-07-29T03:05:19;95922.91;;;27.95;43.45
70141;BME280;57508;43.086;0.136;2022-07-29T03:07:45;95926.41;;;27.96;42.80
70141;BME280;57508;43.086;0.136;2022-07-29T03:10:11;95926.16;;;27.57;43.52
70141;BME280;57508;43.086;0.136;2022-07-29T03:12:37;95923.88;;;27.48;43.70
70141;BME280;57508;43.086;0.136;2022-07-29T03:15:03;95916.13;;;27.50;43.33
70141;BME280;57508;43.086;0.136;2022-07-29T03:17:29;95909.94;;;27.43;43.60
70141;BME280;57508;43.086;0.136;2022-07-29T03:19:56;95893.72;;;27.24;44.53
70141;BME280;57508;43.086;0.136;2022-07-29T03:22:21;95887.41;;;27.49;44.08
70141;BME280;57508;43.086;0.136;2022-07-29T03:24:47;95894.81;;;27.45;44.04
70141;BME280;57508;43.086;0.136;2022-07-29T03:27:12;95888.91;;;27.61;43.63
70141;BME280;57508;43.086;0.136;2022-07-29T03:29:37;95876.63;;;27.38;44.63
70141;BME280;57508;43.086;0.136;2022-07-29T03:32:03;95867.34;;;27.29;44.75
70141;BME280;57508;43.086;0.136;2022-07-29T03:34:29;95866.53;;;27.39;44.58
70141;BME280;57508;43.086;0.136;2022-07-29T03:36:54;95875.84;;;27.34;44.94
70141;BME280;57508;43.086;0.136;2022-07-29T03:39:31;95887.78;;;27.59;44.51
70141;BME280;57508;43.086;0.136;2022-07-29T03:41:58;95885.19;;;27.26;45.06
70141;BME280;57508;43.086;0.136;2022-07-29T03:44:24;95889.13;;;26.88;45.73
70141;BME280;57508;43.086;0.136;2022-07-29T03:46:51;95890.91;;;27.46;44.34
70141;BME280;57508;43.086;0.136;2022-07-29T03:49:17;95895.88;;;27.70;43.99
70141;BME280;57508;43.086;0.136;2022-07-29T03:51:43;95891.19;;;27.77;44.01
70141;BME280;57508;43.086;0.136;2022-07-29T03:54:09;95894.69;;;27.78;44.27
70141;BME280;57508;43.086;0.136;2022-07-29T03:56:36;95885.03;;;27.73;44.35
70141;BME280;57508;43.086;0.136;2022-07-29T03:59:02;95889.31;;;27.60;44.66
70141;BME280;57508;43.086;0.136;2022-07-29T04:01:29;95888.19;;;27.46;44.79
70141;BME280;57508;43.086;0.136;2022-07-29T04:03:55;95887.75;;;27.62;44.29
70141;BME280;57508;43.086;0.136;2022-07-29T04:06:20;95878.44;;;27.67;44.44
70141;BME280;57508;43.086;0.136;2022-07-29T04:08:46;95880.88;;;27.39;44.94
70141;BME280;57508;43.086;0.136;2022-07-29T04:11:11;95884.66;;;27.64;44.38
70141;BME280;57508;43.086;0.136;2022-07-29T04:13:37;95889.69;;;27.69;44.29
70141;BME280;57508;43.086;0.136;2022-07-29T04:16:02;95884.59;;;27.78;44.31
70141;BME280;57508;43.086;0.136;2022-07-29T04:18:27;95886.50;;;27.85;44.25
70141;BME280;57508;43.086;0.136;2022-07-29T04:20:53;95882.66;;;27.83;44.08
70141;BME280;57508;43.086;0.136;2022-07-29T04:23:18;95879.13;;;27.86;43.77
70141;BME280;57508;43.086;0.136;2022-07-29T04:25:43;95891.53;;;27.87;43.87
70141;BME280;57508;43.086;0.136;2022-07-29T04:28:09;95895.84;;;27.81;44.29
70141;BME280;57508;43.086;0.136;2022-07-29T04:30:35;95899.72;;;27.80;44.02
70141;BME280;57508;43.086;0.136;2022-07-29T04:33:01;95896.94;;;27.94;43.48
70141;BME280;57508;43.086;0.136;2022-07-29T04:35:27;95898.84;;;27.97;43.68
70141;BME280;57508;43.086;0.136;2022-07-29T04:37:53;95905.84;;;27.95;43.81
70141;BME280;57508;43.086;0.136;2022-07-29T04:40:18;95903.56;;;27.86;44.33
70141;BME280;57508;43.086;0.136;2022-07-29T04:42:43;95898.06;;;28.00;43.58
70141;BME280;57508;43.086;0.136;2022-07-29T04:45:08;95895.09;;;27.76;44.39
70141;BME280;57508;43.086;0.136;2022-07-29T04:47:34;95909.81;;;27.79;43.95
70141;BME280;57508;43.086;0.136;2022-07-29T04:49:59;95912.53;;;27.79;44.10
70141;BME280;57508;43.086;0.136;2022-07-29T04:52:24;95916.41;;;27.74;44.32
70141;BME280;57508;43.086;0.136;2022-07-29T04:54:49;95904.47;;;27.53;44.69
70141;BME280;57508;43.086;0.136;2022-07-29T04:57:15;95897.53;;;27.45;44.44
70141;BME280;57508;43.086;0.136;2022-07-29T04:59:40;95902.91;;;27.52;44.59
70141;BME280;57508;43.086;0.136;2022-07-29T05:02:05;95917.63;;;27.55;44.72
70141;BME280;57508;43.086;0.136;2022-07-29T05:04:31;95933.13;;;27.65;44.16
70141;BME280;57508;43.086;0.136;2022-07-29T05:06:56;95940.88;;;27.71;44.32
70141;BME280;57508;43.086;0.136;2022-07-29T05:09:21;95925.38;;;27.64;44.64
70141;BME280;57508;43.086;0.136;2022-07-29T05:11:46;95920.69;;;27.75;44.23
70141;BME280;57508;43.086;0.136;2022-07-29T05:14:12;95929.19;;;27.77;44.33
70141;BME280;57508;43.086;0.136;2022-07-29T05:16:37;95943.59;;;27.71;44.48
70141;BME280;57508;43.086;0.136;2022-07-29T05:19:04;95939.84;;;27.21;45.65
70141;BME280;57508;43.086;0.136;2022-07-29T05:21:29;95948.25;;;27.63;44.56
70141;BME280;57508;43.086;0.136;2022-07-29T05:23:54;95955.25;;;27.49;44.66
70141;BME280;57508;43.086;0.136;2022-07-29T05:26:20;95946.31;;;27.60;44.15
70141;BME280;57508;43.086;0.136;2022-07-29T05:28:45;95937.81;;;27.65;44.05
70141;BME280;57508;43.086;0.136;2022-07-29T05:31:10;95944.00;;;27.69;44.00
70141;BME280;57508;43.086;0.136;2022-07-29T05:33:36;95961.09;;;27.44;44.25
70141;BME280;57508;43.086;0.136;2022-07-29T05:36:01;95961.47;;;27.50;44.33
70141;BME280;57508;43.086;0.136;2022-07-29T05:38:26;95953.06;;;27.08;44.36
70141;BME280;57508;43.086;0.136;2022-07-29T05:40:51;95956.88;;;27.21;44.65
70141;BME280;57508;43.086;0.136;2022-07-29T05:43:17;95968.53;;;27.07;44.95
70141;BME280;57508;43.086;0.136;2022-07-29T05:45:42;95958.47;;;27.15;44.81
70141;BME280;57508;43.086;0.136;2022-07-29T05:48:07;95959.22;;;27.26;44.64
70141;BME280;57508;43.086;0.136;2022-07-29T05:50:33;95952.63;;;27.20;44.40
70141;BME280;57508;43.086;0.136;2022-07-29T05:52:58;95963.47;;;27.20;44.23
70141;BME280;57508;43.086;0.136;2022-07-29T05:55:23;95974.28;;;27.35;43.93
70141;BME280;57508;43.086;0.136;2022-07-29T05:57:48;95967.69;;;27.39;43.68
70141;BME280;57508;43.086;0.136;2022-07-29T06:00:14;95965.78;;;27.25;43.34
70141;BME280;57508;43.086;0.136;2022-07-29T06:02:39;95997.56;;;27.29;43.74
70141;BME280;57508;43.086;0.136;2022-07-29T06:05:04;96002.63;;;27.19;43.72
70141;BME280;57508;43.086;0.136;2022-07-29T06:07:30;95992.16;;;27.18;43.96
70141;BME280;57508;43.086;0.136;2022-07-29T06:09:55;95977.06;;;27.17;44.34
70141;BME280;57508;43.086;0.136;2022-07-29T06:12:20;95987.13;;;27.05;44.87
70141;BME280;57508;43.086;0.136;2022-07-29T06:14:46;95984.00;;;27.21;44.29
70141;BME280;57508;43.086;0.136;2022-07-29T06:17:11;96000.66;;;27.38;44.03
70141;BME280;57508;43.086;0.136;2022-07-29T06:19:37;96013.03;;;27.39;43.96
70141;BME280;57508;43.086;0.136;2022-07-29T06:22:02;96020.41;;;27.46;43.57
70141;BME280;57508;43.086;0.136;2022-07-29T06:24:28;96013.81;;;27.43;43.36
70141;BME280;57508;43.086;0.136;2022-07-29T06:26:53;96026.22;;;27.44;44.08
70141;BME280;57508;43.086;0.136;2022-07-29T06:29:18;96029.31;;;27.39;43.93
70141;BME280;57508;43.086;0.136;2022-07-29T06:31:44;96028.94;;;27.40;44.02
70141;BME280;57508;43.086;0.136;2022-07-29T06:34:09;96018.88;;;27.23;43.94
70141;BME280;57508;43.086;0.136;2022-07-29T06:36:35;96028.59;;;27.17;44.37
70141;BME280;57508;43.086;0.136;2022-07-29T06:39:03;96048.34;;;27.06;44.80
70141;BME280;57508;43.086;0.136;2022-07-29T06:41:28;96058.03;;;27.11;44.79
70141;BME280;57508;43.086;0.136;2022-07-29T06:43:53;96057.25;;;27.29;44.38
70141;BME280;57508;43.086;0.136;2022-07-29T06:46:19;96060.72;;;27.36;43.80
70141;BME280;57508;43.086;0.136;2022-07-29T06:48:44;96059.56;;;27.34;43.81
70141;BME280;57508;43.086;0.136;2022-07-29T06:51:10;96060.34;;;27.34;44.11
70141;BME280;57508;43.086;0.136;2022-07-29T06:53:36;96055.72;;;27.24;44.38
70141;BME280;57508;43.086;0.136;2022-07-29T06:56:02;96058.81;;;27.22;44.42
70141;BME280;57508;43.086;0.136;2022-07-29T06:58:28;96077.03;;;27.40;44.01
70141;BME280;57508;43.086;0.136;2022-07-29T07:00:54;96096.78;;;27.44;43.67
70141;BME280;57508;43.086;0.136;2022-07-29T07:03:20;96102.97;;;27.37;44.05
70141;BME280;57508;43.086;0.136;2022-07-29T07:05:46;96105.69;;;27.41;43.91
70141;BME280;57508;43.086;0.136;2022-07-29T07:08:11;96113.81;;;27.48;43.73
70141;BME280;57508;43.086;0.136;2022-07-29T07:10:37;96112.28;;;27.44;43.84
70141;BME280;57508;43.086;0.136;2022-07-29T07:13:03;96100.25;;;27.48;44.01
70141;BME280;57508;43.086;0.136;2022-07-29T07:15:29;96099.09;;;27.49;44.21
70141;BME280;57508;43.086;0.136;2022-07-29T07:17:54;96102.19;;;27.33;44.28
70141;BME280;57508;43.086;0.136;2022-07-29T07:20:19;96106.88;;;27.40;44.01
70141;BME280;57508;43.086;0.136;2022-07-29T07:22:45;96107.63;;;27.51;44.15
70141;BME280;57508;43.086;0.136;2022-07-29T07:25:10;96103.75;;;27.31;44.09
70141;BME280;57508;43.086;0.136;2022-07-29T07:27:36;96097.53;;;27.37;44.08
70141;BME280;57508;43.086;0.136;2022-07-29T07:30:02;96105.28;;;27.39;44.04
70141;BME280;57508;43.086;0.136;2022-07-29T07:32:27;96118.88;;;27.35;44.27
70141;BME280;57508;43.086;0.136;2022-07-29T07:34:53;96121.22;;;27.37;43.94
70141;BME280;57508;43.086;0.136;2022-07-29T07:37:18;96118.09;;;27.46;43.90
70141;BME280;57508;43.086;0.136;2022-07-29T07:39:45;96102.13;;;26.93;44.92
70141;BME280;57508;43.086;0.136;2022-07-29T07:42:10;96092.22;;;25.48;48.49
70141;BME280;57508;43.086;0.136;2022-07-29T07:44:38;96083.34;;;26.22;46.54
70141;BME280;57508;43.086;0.136;2022-07-29T07:47:03;96084.56;;;26.29;46.00
70141;BME280;57508;43.086;0.136;2022-07-29T07:49:28;96077.34;;;26.84;45.13
70141;BME280;57508;43.086;0.136;2022-07-29T07:51:54;96079.28;;;26.80;45.04
70141;BME280;57508;43.086;0.136;2022-07-29T07:54:19;96092.84;;;26.91;45.07
70141;BME280;57508;43.086;0.136;2022-07-29T07:56:44;96101.03;;;27.09;45.06
70141;BME280;57508;43.086;0.136;2022-07-29T07:59:09;96096.78;;;27.15;44.71
70141;BME280;57508;43.086;0.136;2022-07-29T08:01:34;96102.09;;;26.64;45.25
70141;BME280;57508;43.086;0.136;2022-07-29T08:04:00;96075.03;;;26.97;44.74
70141;BME280;57508;43.086;0.136;2022-07-29T08:06:25;96066.94;;;27.15;44.64
70141;BME280;57508;43.086;0.136;2022-07-29T08:08:50;96054.91;;;27.56;43.91
70141;BME280;57508;43.086;0.136;2022-07-29T08:11:16;96060.75;;;27.33;43.93
70141;BME280;57508;43.086;0.136;2022-07-29T08:13:41;96069.25;;;27.46;43.81
70141;BME280;57508;43.086;0.136;2022-07-29T08:16:08;96060.72;;;27.51;44.07
70141;BME280;57508;43.086;0.136;2022-07-29T08:18:37;96055.09;;;28.20;43.95
70141;BME280;57508;43.086;0.136;2022-07-29T08:21:03;96045.28;;;28.48;42.71
70141;BME280;57508;43.086;0.136;2022-07-29T08:23:28;96027.72;;;29.17;41.17
70141;BME280;57508;43.086;0.136;2022-07-29T08:26:00;96044.31;;;30.07;41.64
70141;BME280;57508;43.086;0.136;2022-07-29T08:28:25;96047.88;;;30.66;38.77
70141;BME280;57508;43.086;0.136;2022-07-29T08:30:51;96064.94;;;30.71;38.50
70141;BME280;57508;43.086;0.136;2022-07-29T08:33:16;96069.50;;;30.18;37.78
70141;BME280;57508;43.086;0.136;2022-07-29T08:35:41;96067.13;;;30.83;36.71
70141;BME280;57508;43.086;0.136;2022-07-29T08:38:07;96069.69;;;30.94;37.45
70141;BME280;57508;43.086;0.136;2022-07-29T08:40:32;96054.41;;;31.00;37.19
70141;BME280;57508;43.086;0.136;2022-07-29T08:42:58;96039.72;;;30.63;36.22
70141;BME280;57508;43.086;0.136;2022-07-29T08:45:23;96040.75;;;30.14;37.04
70141;BME280;57508;43.086;0.136;2022-07-29T08:47:49;96047.50;;;30.37;37.82
70141;BME280;57508;43.086;0.136;2022-07-29T08:50:15;96036.56;;;30.40;37.83
70141;BME280;57508;43.086;0.136;2022-07-29T08:52:40;96028.38;;;30.05;39.36
70141;BME280;57508;43.086;0.136;2022-07-29T08:55:07;96016.31;;;29.75;40.58
70141;BME280;57508;43.086;0.136;2022-07-29T08:57:33;96023.03;;;29.98;39.38
70141;BME280;57508;43.086;0.136;2022-07-29T08:59:59;96032.28;;;30.04;40.72
70141;BME280;57508;43.086;0.136;2022-07-29T09:02:25;96038.59;;;30.33;39.91
70141;BME280;57508;43.086;0.136;2022-07-29T09:04:53;96041.59;;;30.70;40.34
70141;BME280;57508;43.086;0.136;2022-07-29T09:07:18;96041.19;;;30.71;40.22
70141;BME280;57508;43.086;0.136;2022-07-29T09:09:44;96040.22;;;30.54;40.35
70141;BME280;57508;43.086;0.136;2022-07-29T09:12:09;96036.75;;;30.81;38.74
70141;BME280;57508;43.086;0.136;2022-07-29T09:14:36;96023.84;;;31.09;38.70
70141;BME280;57508;43.086;0.136;2022-07-29T09:17:02;96021.28;;;30.98;38.44
70141;BME280;57508;43.086;0.136;2022-07-29T09:19:31;96027.66;;;31.15;39.09
70141;BME280;57508;43.086;0.136;2022-07-29T09:21:58;96031.50;;;31.18;38.65
70141;BME280;57508;43.086;0.136;2022-07-29T09:26:58;96041.59;;;31.21;37.97
70141;BME280;57508;43.086;0.136;2022-07-29T09:29:23;96038.03;;;30.73;38.89
70141;BME280;57508;43.086;0.136;2022-07-29T09:31:50;96044.13;;;30.25;39.36
70141;BME280;57508;43.086;0.136;2022-07-29T09:34:17;96043.19;;;30.04;39.58
70141;BME280;57508;43.086;0.136;2022-07-29T09:36:46;96043.66;;;29.99;39.89
70141;BME280;57508;43.086;0.136;2022-07-29T09:39:12;96042.03;;;30.37;39.54
70141;BME280;57508;43.086;0.136;2022-07-29T09:41:50;96040.88;;;30.65;39.79
70141;BME280;57508;43.086;0.136;2022-07-29T09:44:19;96046.03;;;30.28;40.62
70141;BME280;57508;43.086;0.136;2022-07-29T09:46:54;96047.31;;;30.20;40.13
70141;BME280;57508;43.086;0.136;2022-07-29T09:49:20;96044.44;;;30.31;39.39
70141;BME280;57508;43.086;0.136;2022-07-29T09:51:46;96055.50;;;30.79;39.26
70141;BME280;57508;43.086;0.136;2022-07-29T09:54:30;96061.72;;;30.79;38.80
70141;BME280;57508;43.086;0.136;2022-07-29T09:57:01;96070.72;;;30.45;39.86
70141;BME280;57508;43.086;0.136;2022-07-29T09:59:27;96077.91;;;30.63;38.86
70141;BME280;57508;43.086;0.136;2022-07-29T10:01:53;96070.47;;;30.67;38.11
70141;BME280;57508;43.086;0.136;2022-07-29T10:04:18;96081.31;;;30.98;37.85
70141;BME280;57508;43.086;0.136;2022-07-29T10:09:22;96088.69;;;30.42;39.17
70141;BME280;57508;43.086;0.136;2022-07-29T10:14:32;96097.34;;;30.37;38.92
70141;BME280;57508;43.086;0.136;2022-07-29T10:16:59;96104.91;;;30.22;38.53
70141;BME280;57508;43.086;0.136;2022-07-29T10:19:25;96098.56;;;30.33;39.14
70141;BME280;57508;43.086;0.136;2022-07-29T10:21:50;96097.75;;;29.62;39.65
70141;BME280;57508;43.086;0.136;2022-07-29T10:24:16;96093.28;;;29.79;40.06
70141;BME280;57508;43.086;0.136;2022-07-29T10:26:41;96098.28;;;29.85;38.51
70141;BME280;57508;43.086;0.136;2022-07-29T10:29:07;96103.28;;;29.90;39.77
70141;BME280;57508;43.086;0.136;2022-07-29T10:34:23;96111.56;;;29.33;40.36
70141;BME280;57508;43.086;0.136;2022-07-29T10:44:32;96115.97;;;30.04;39.06
70141;BME280;57508;43.086;0.136;2022-07-29T10:46:58;96122.78;;;29.85;38.95
70141;BME280;57508;43.086;0.136;2022-07-29T10:49:24;96122.75;;;29.88;39.01
70141;BME280;57508;43.086;0.136;2022-07-29T10:51:52;96131.31;;;29.41;40.83
70141;BME280;57508;43.086;0.136;2022-07-29T10:54:18;96119.53;;;29.59;39.37
70141;BME280;57508;43.086;0.136;2022-07-29T10:56:43;96130.06;;;29.53;39.98
70141;BME280;57508;43.086;0.136;2022-07-29T11:01:43;96137.00;;;29.65;39.51
70141;BME280;57508;43.086;0.136;2022-07-29T11:04:08;96132.00;;;29.98;37.94
70141;BME280;57508;43.086;0.136;2022-07-29T11:09:18;96126.94;;;29.58;38.74
70141;BME280;57508;43.086;0.136;2022-07-29T11:11:44;96134.59;;;29.71;38.82
70141;BME280;57508;43.086;0.136;2022-07-29T11:14:10;96130.78;;;30.03;38.26
70141;BME280;57508;43.086;0.136;2022-07-29T11:16:58;96136.88;;;30.18;37.65
70141;BME280;57508;43.086;0.136;2022-07-29T11:19:21;96136.72;;;29.94;37.67
70141;BME280;57508;43.086;0.136;2022-07-29T11:21:47;96133.13;;;30.01;36.82
70141;BME280;57508;43.086;0.136;2022-07-29T11:24:13;96132.38;;;30.39;37.03
70141;BME280;57508;43.086;0.136;2022-07-29T11:26:39;96123.63;;;30.51;37.86
70141;BME280;57508;43.086;0.136;2022-07-29T11:29:18;96126.34;;;30.86;36.52
70141;BME280;57508;43.086;0.136;2022-07-29T11:31:47;96124.13;;;31.29;36.51
70141;BME280;57508;43.086;0.136;2022-07-29T11:39:28;96133.59;;;29.92;37.01
70141;BME280;57508;43.086;0.136;2022-07-29T11:41:53;96128.91;;;30.35;37.67
70141;BME280;57508;43.086;0.136;2022-07-29T11:47:22;96132.41;;;29.51;39.04
70141;BME280;57508;43.086;0.136;2022-07-29T11:49:48;96126.44;;;30.44;36.51
70141;BME280;57508;43.086;0.136;2022-07-29T11:52:16;96129.63;;;30.39;37.36
70141;BME280;57508;43.086;0.136;2022-07-29T11:54:42;96126.31;;;30.24;37.03
70141;BME280;57508;43.086;0.136;2022-07-29T11:57:07;96132.41;;;30.35;37.53
70141;BME280;57508;43.086;0.136;2022-07-29T11:59:43;96137.16;;;30.27;37.72
70141;BME280;57508;43.086;0.136;2022-07-29T12:02:09;96140.41;;;30.50;37.49
70141;BME280;57508;43.086;0.136;2022-07-29T12:04:51;96140.63;;;30.63;36.60
70141;BME280;57508;43.086;0.136;2022-07-29T12:07:16;96134.81;;;30.92;37.28
70141;BME280;57508;43.086;0.136;2022-07-29T12:09:52;96130.09;;;30.96;37.86
70141;BME280;57508;43.086;0.136;2022-07-29T12:12:17;96137.50;;;30.96;37.21
70141;BME280;57508;43.086;0.136;2022-07-29T12:14:43;96129.44;;;31.40;37.56
70141;BME280;57508;43.086;0.136;2022-07-29T12:17:28;96128.00;;;31.79;36.51
70141;BME280;57508;43.086;0.136;2022-07-29T12:19:54;96128.13;;;31.72;36.18
70141;BME280;57508;43.086;0.136;2022-07-29T12:22:25;96137.38;;;32.02;35.40
70141;BME280;57508;43.086;0.136;2022-07-29T12:24:51;96140.00;;;31.62;34.73
70141;BME280;57508;43.086;0.136;2022-07-29T12:27:17;96137.00;;;32.00;35.52
70141;BME280;57508;43.086;0.136;2022-07-29T12:29:43;96146.47;;;31.96;35.95
70141;BME280;57508;43.086;0.136;2022-07-29T12:32:08;96140.66;;;32.14;35.31
70141;BME280;57508;43.086;0.136;2022-07-29T12:34:33;96138.69;;;31.94;35.95
70141;BME280;57508;43.086;0.136;2022-07-29T12:36:59;96144.94;;;31.91;36.42
70141;BME280;57508;43.086;0.136;2022-07-29T12:39:25;96140.56;;;31.73;36.49
70141;BME280;57508;43.086;0.136;2022-07-29T12:41:53;96149.75;;;31.63;36.46
70141;BME280;57508;43.086;0.136;2022-07-29T12:44:18;96142.75;;;31.38;37.16
70141;BME280;57508;43.086;0.136;2022-07-29T12:46:43;96151.34;;;31.36;37.18
70141;BME280;57508;43.086;0.136;2022-07-29T12:49:11;96163.44;;;31.08;37.59
70141;BME280;57508;43.086;0.136;2022-07-29T12:51:45;96156.81;;;31.36;37.12
70141;BME280;57508;43.086;0.136;2022-07-29T12:54:12;96158.38;;;30.78;38.19
70141;BME280;57508;43.086;0.136;2022-07-29T12:56:41;96152.94;;;30.75;38.46
70141;BME280;57508;43.086;0.136;2022-07-29T12:59:20;96162.31;;;30.77;38.18
70141;BME280;57508;43.086;0.136;2022-07-29T13:01:46;96163.47;;;30.41;39.64
70141;BME280;57508;43.086;0.136;2022-07-29T13:04:23;96155.84;;;30.60;39.29
70141;BME280;57508;43.086;0.136;2022-07-29T13:06:49;96160.53;;;30.60;39.06
70141;BME280;57508;43.086;0.136;2022-07-29T13:09:22;96161.94;;;30.75;38.65
70141;BME280;57508;43.086;0.136;2022-07-29T13:11:51;96166.09;;;30.84;38.13
70141;BME280;57508;43.086;0.136;2022-07-29T13:14:36;96165.97;;;30.95;38.02
70141;BME280;57508;43.086;0.136;2022-07-29T13:17:03;96167.19;;;31.17;37.42
70141;BME280;57508;43.086;0.136;2022-07-29T13:19:32;96167.53;;;31.47;37.51
70141;BME280;57508;43.086;0.136;2022-07-29T13:21:58;96160.44;;;31.77;36.56
70141;BME280;57508;43.086;0.136;2022-07-29T13:24:23;96162.25;;;32.08;36.41
70141;BME280;57508;43.086;0.136;2022-07-29T13:26:49;96166.06;;;32.35;36.03
70141;BME280;57508;43.086;0.136;2022-07-29T13:29:14;96156.00;;;32.28;35.76
70141;BME280;57508;43.086;0.136;2022-07-29T13:31:39;96162.97;;;32.32;35.69
70141;BME280;57508;43.086;0.136;2022-07-29T13:34:05;96166.91;;;32.52;35.69
70141;BME280;57508;43.086;0.136;2022-07-29T13:36:30;96180.06;;;32.37;35.47
70141;BME280;57508;43.086;0.136;2022-07-29T13:38:56;96175.06;;;32.55;35.71
70141;BME280;57508;43.086;0.136;2022-07-29T13:41:21;96169.75;;;32.65;35.93
70141;BME280;57508;43.086;0.136;2022-07-29T13:43:46;96176.66;;;32.73;35.13
70141;BME280;57508;43.086;0.136;2022-07-29T13:46:12;96178.81;;;32.99;35.50
70141;BME280;57508;43.086;0.136;2022-07-29T13:48:37;96180.59;;;33.09;35.09
70141;BME280;57508;43.086;0.136;2022-07-29T13:51:02;96174.44;;;33.38;33.84